ADDS METAR Data INFO
IDs: Format: Raw Decoded Include TAF

Data at: 1312 UTC 11 Dec 2017

KCVW 111305Z AUTO 27006KT 10SM CLR 09/04 A3034 RMK A01
KCVW 111245Z AUTO 28007KT 10SM CLR 08/03 A3033 RMK A01
KCVW 111225Z AUTO 27005KT 10SM CLR 08/03 A3032 RMK A01
KCVW 111205Z AUTO 28005KT 10SM CLR 08/04 A3032 RMK A01
KCVW 111145Z AUTO 28005KT 10SM CLR 08/04 A3032 RMK A01
KCVW 111125Z AUTO 28005KT 10SM CLR 08/04 A3031 RMK A01
KCVW 111105Z AUTO 28006KT 10SM CLR 09/03 A3031 RMK A01
KCVW 111045Z AUTO 29005KT 10SM CLR 08/04 A3031 RMK A01
KCVW 111025Z AUTO 29005KT 10SM CLR 08/04 A3032 RMK A01
KCVW 111005Z AUTO 29005KT 10SM CLR 08/05 A3032 RMK A01
KCVW 110945Z AUTO 30004KT 10SM CLR 09/06 A3033 RMK A01
KCVW 110925Z AUTO 29005KT 10SM CLR 09/07 A3033 RMK A01
KCVW 110905Z AUTO 27005KT 10SM CLR 09/07 A3033 RMK A01
KCVW 110845Z AUTO 28005KT 10SM CLR 09/07 A3034 RMK A01
KCVW 110825Z AUTO 27006KT 10SM CLR 09/07 A3034 RMK A01
KCVW 110805Z AUTO 28006KT 10SM CLR 09/07 A3034 RMK A01
KCVW 110745Z AUTO 27005KT 10SM CLR 09/07 A3033 RMK A01
KCVW 110725Z AUTO 28006KT 10SM CLR 09/07 A3034 RMK A01
KCVW 110705Z AUTO 28005KT 10SM CLR 09/07 A3033 RMK A01
KCVW 110645Z AUTO 30004KT 10SM CLR 08/07 A3033 RMK A01
KCVW 110625Z AUTO 29005KT 10SM CLR 09/07 A3034 RMK A01
KCVW 110605Z AUTO 28004KT 10SM CLR 09/07 A3035 RMK A01
KCVW 110545Z AUTO 26004KT 10SM CLR 10/07 A3035 RMK A01
KCVW 110525Z AUTO VRB04KT 10SM CLR 10/07 A3036 RMK A01
KCVW 110505Z AUTO 26004KT 10SM CLR 09/06 A3037 RMK A01
KCVW 110445Z AUTO 28004KT 10SM CLR 09/06 A3037 RMK A01
KCVW 110425Z AUTO 26004KT 10SM CLR 10/06 A3037 RMK A01
KCVW 110405Z AUTO 27005KT 10SM CLR 10/06 A3038 RMK A01
KCVW 110345Z AUTO 27005KT 10SM CLR 11/06 A3038 RMK A01
KCVW 110325Z AUTO 27004KT 10SM CLR 10/06 A3038 RMK A01
KCVW 110305Z AUTO 27004KT 10SM CLR 10/06 A3038 RMK A01
KCVW 110245Z AUTO 28004KT 10SM CLR 10/05 A3038 RMK A01
KCVW 110225Z AUTO 27004KT 10SM CLR 10/05 A3038 RMK A01
KCVW 110205Z AUTO 27004KT 10SM CLR 11/04 A3038 RMK A01
KCVW 110145Z AUTO 27004KT 10SM CLR 11/04 A3038 RMK A01
KCVW 110125Z AUTO 26005KT 10SM CLR 12/04 A3037 RMK A01
KCVW 110105Z AUTO 25005KT 10SM CLR 12/04 A3037 RMK A01
KCVW 110045Z AUTO 25005KT 10SM CLR 12/03 A3037 RMK A01
KCVW 110025Z AUTO 25005KT 10SM CLR 12/04 A3037 RMK A01
KCVW 110005Z AUTO 24006KT 10SM CLR 12/04 A3036 RMK A01
KCVW 102345Z AUTO 24005KT 10SM CLR 12/04 A3036 RMK A01
KCVW 102325Z AUTO 24005KT 10SM CLR 12/04 A3036 RMK A01
KCVW 102305Z AUTO 24004KT 10SM CLR 13/04 A3036 RMK A01
KCVW 102245Z AUTO 23005KT 10SM CLR 14/03 A3036 RMK A01
KCVW 102225Z AUTO 22007KT 10SM CLR 14/03 A3037 RMK A01
KCVW 102205Z AUTO 22006KT 10SM CLR 14/03 A3037 RMK A01
KCVW 102145Z AUTO 22007KT 10SM CLR 14/02 A3037 RMK A01
KCVW 102125Z AUTO 22008KT 10SM CLR 14/02 A3037 RMK A01
KCVW 102105Z AUTO 21008KT 10SM CLR 14/02 A3037 RMK A01
KCVW 102045Z AUTO 20008KT 10SM CLR 14/01 A3037 RMK A01
KCVW 102025Z AUTO 20009KT 10SM CLR 14/01 A3037 RMK A01
KCVW 102005Z AUTO 20007KT 10SM CLR 14/02 A3038 RMK A01
KCVW 101945Z AUTO 26003KT 10SM CLR 15/M02 A3038 RMK A01
KCVW 101925Z AUTO 34005KT 10SM CLR 15/M02 A3039 RMK A01
KCVW 101905Z AUTO 33006KT 10SM CLR 15/M03 A3039 RMK A01
KCVW 101845Z AUTO VRB03KT 10SM CLR 15/M03 A3039 RMK A01
KCVW 101825Z AUTO 32004KT 10SM CLR 14/M03 A3041 RMK A01
KCVW 101805Z AUTO 00000KT 10SM CLR 14/M03 A3042 RMK A01
KCVW 101745Z AUTO 00000KT 10SM CLR 14/M03 A3043 RMK A01
KCVW 101725Z AUTO 36005KT 10SM CLR 14/M03 A3043 RMK A01
KCVW 101705Z AUTO 36006KT 10SM CLR 14/M03 A3044 RMK A01
KCVW 101645Z AUTO 06004KT 10SM CLR 13/M02 A3044 RMK A01
KCVW 101625Z AUTO 36004KT 10SM CLR 12/00 A3044 RMK A01
KCVW 101605Z AUTO 02004KT 10SM CLR 11/02 A3045 RMK A01
KCVW 101545Z AUTO 02005KT 10SM CLR 10/01 A3045 RMK A01
KCVW 101525Z AUTO 02005KT 10SM CLR 10/01 A3045 RMK A01
KCVW 101505Z AUTO 02006KT 10SM CLR 09/02 A3043 RMK A01
KCVW 101445Z AUTO 02004KT 10SM CLR 08/04 A3043 RMK A01
KCVW 101425Z AUTO 00000KT 10SM CLR 07/04 A3042 RMK A01
KCVW 101405Z AUTO 01005KT 10SM CLR 07/02 A3042 RMK A01
KCVW 101345Z AUTO 35004KT 10SM CLR 06/02 A3042 RMK A01
KCVW 101320Z AUTO 00000KT 10SM CLR 05/02 A3040 RMK A01
KCVW 101305Z AUTO 01005KT 10SM CLR 05/02 A3039 RMK A01
KCVW 101245Z AUTO 03005KT 10SM CLR 05/02 A3038 RMK A01
KCVW 101225Z AUTO 02005KT 10SM CLR 05/02 A3038 RMK A01
KCVW 101205Z AUTO 02007KT 10SM CLR 06/02 A3037 RMK A01
KCVW 101145Z AUTO 01007KT 10SM CLR 06/02 A3037 RMK A01
KCVW 101125Z AUTO 02007KT 10SM CLR 06/03 A3037 RMK A01
KCVW 101105Z AUTO 02005KT 10SM CLR 07/04 A3037 RMK A01
KCVW 101045Z AUTO 01004KT 10SM CLR 07/05 A3036 RMK A01
KCVW 101025Z AUTO 36004KT 10SM CLR 07/04 A3036 RMK A01
KCVW 101005Z AUTO 35005KT 10SM CLR 07/04 A3037 RMK A01
KCVW 100945Z AUTO 34004KT 10SM CLR 06/04 A3037 RMK A01
KCVW 100925Z AUTO 33004KT 10SM CLR 06/03 A3036 RMK A01
KCVW 100905Z AUTO 33005KT 10SM CLR 06/03 A3036 RMK A01
KCVW 100845Z AUTO 31004KT 10SM CLR 06/04 A3036 RMK A01
KCVW 100825Z AUTO 31004KT 10SM CLR 07/04 A3036 RMK A01
KCVW 100805Z AUTO 31005KT 10SM CLR 07/04 A3036 RMK A01
KCVW 100745Z AUTO 30005KT 10SM CLR 07/04 A3036 RMK A01
KCVW 100725Z AUTO 30004KT 10SM CLR 07/04 A3036 RMK A01
KCVW 100705Z AUTO 30004KT 10SM CLR 07/04 A3036 RMK A01
KCVW 100645Z AUTO 30005KT 10SM CLR 08/03 A3036 RMK A01
KCVW 100625Z AUTO 29005KT 10SM CLR 08/04 A3036 RMK A01
KCVW 100605Z AUTO 29004KT 10SM CLR 08/04 A3035 RMK A01
KCVW 100545Z AUTO 29004KT 10SM CLR 08/04 A3034 RMK A01
KCVW 100525Z AUTO 29004KT 10SM CLR 08/03 A3034 RMK A01
KCVW 100505Z AUTO 29005KT 10SM CLR 08/04 A3034 RMK A01
KCVW 100445Z AUTO 29004KT 10SM CLR 08/04 A3034 RMK A01
KCVW 100425Z AUTO 29004KT 10SM CLR 08/04 A3034 RMK A01
KCVW 100405Z AUTO 29005KT 10SM CLR 08/04 A3033 RMK A01
KCVW 100345Z AUTO 29005KT 10SM CLR 08/04 A3032 RMK A01
KCVW 100325Z AUTO 29004KT 10SM CLR 08/04 A3032 RMK A01
KCVW 100305Z AUTO 29006KT 10SM CLR 08/04 A3031 RMK A01
KCVW 100245Z AUTO 29004KT 10SM CLR 09/04 A3030 RMK A01
KCVW 100225Z AUTO 29004KT 10SM CLR 09/04 A3029 RMK A01
KCVW 100205Z AUTO 29004KT 10SM CLR 09/04 A3029 RMK A01
KCVW 100145Z AUTO 30004KT 10SM CLR 09/05 A3028 RMK A01
KCVW 100125Z AUTO 29004KT 10SM CLR 10/05 A3027 RMK A01